Decoded Metar for KSUT (SOUTHPORT in NC, USA) (IATA:SUT) | Meteo·Mobile Aviation Weather
aviador You're here:

KSUT Decoded Metar

SOUTHPORT in NC, USA
Report Time2018-12-11 01:40:00
UTC Time2018-12-11 01:59:36
Flight Rules ifr IFR
Wind350° at 10 Gusting to 15 kt
W.Decomp.*RWY 05: 6.2 kt HW 7.9 kt LCW
W.Rank350° ranks 12
Current wind is above 350° avg. (6.7)
Visibility8047 m
Phenomena:Mist
Clouds:Broken 008 Hf
Overcast 016 Hf
Expected CloudBase > 400 ft AGL from Temp-Dew spread
Ceiling800 ft
Temp03°C (ISA -12)
Dew Point02°C (93% RH)
AAT-2.3°C
QNH1019 hPa
Density Alt-1,532 ft
Elevation26 ft
Report Wrong Elevation
Raw Report
METAR KSUT 110140Z AUTO 35010G15KT 5SM BR BKN008 OVC016 03/02 A3009
RMK AO2 T00310022=

Extra information for KSUT:More info

Metar Taf Metar & Taf Last 4 Metars F.Rules Stats Wind Profile Meteogram Temp Stats Airport Information Weather charts Add Link Nearby VenuesMetar ALERT Operation Metar Decoded Social comments

AIRNAV info for KSUT